Time;durP1;ratioP1;P1;durP2;ratioP2;P2;SDS_P1;SDS_P2;PMS_P1;PMS_P2;Temp;Humidity;BMP_temperature;BMP_pressure;BME280_temperature;BME280_humidity;BME280_pressure;Samples;Min_cycle;Max_cycle;Signal;HPM_P1;HPM_P2
2021/04/20 00:02:21;;;;;;;5.85;4.70;;;9.40;99.90;;;;;;4966930;28;20019;-73
2021/04/20 00:04:47;;;;;;;4.80;4.38;;;9.00;99.90;;;;;;4971241;28;20069;-73
2021/04/20 00:07:14;;;;;;;4.60;4.20;;;9.30;99.90;;;;;;4959498;28;20077;-73
2021/04/20 00:09:39;;;;;;;4.60;4.30;;;9.50;99.90;;;;;;4967324;28;20033;-73
2021/04/20 00:12:05;;;;;;;4.53;4.13;;;9.50;99.90;;;;;;4963933;28;20575;-72
2021/04/20 00:14:31;;;;;;;4.32;3.95;;;9.70;99.90;;;;;;4966910;28;20384;-72
2021/04/20 00:16:57;;;;;;;6.93;4.68;;;9.80;99.90;;;;;;4963513;28;20092;-72
2021/04/20 00:19:22;;;;;;;4.57;4.18;;;9.70;99.90;;;;;;4968474;28;20487;-73
2021/04/20 00:21:48;;;;;;;3.97;3.58;;;9.60;99.90;;;;;;4967337;28;20051;-72
2021/04/20 00:24:14;;;;;;;5.82;4.72;;;9.20;99.90;;;;;;4969851;28;20531;-71
2021/04/20 00:26:40;;;;;;;4.82;4.43;;;9.20;99.90;;;;;;4961506;28;20042;-71
2021/04/20 00:29:06;;;;;;;6.30;4.55;;;9.20;99.90;;;;;;4960254;28;20097;-72
2021/04/20 00:31:31;;;;;;;6.22;4.10;;;9.50;99.90;;;;;;4960237;28;20514;-71
2021/04/20 00:33:57;;;;;;;5.07;4.57;;;9.20;99.90;;;;;;4956582;28;20031;-71
2021/04/20 00:36:23;;;;;;;6.60;4.50;;;9.20;99.90;;;;;;4963109;28;20011;-71
2021/04/20 00:38:48;;;;;;;5.70;4.30;;;9.20;99.90;;;;;;4972438;28;20034;-72
2021/04/20 00:41:15;;;;;;;5.80;5.15;;;9.30;99.90;;;;;;4966239;28;20031;-71
2021/04/20 00:43:43;;;;;;;5.70;5.00;;;9.30;99.90;;;;;;4970610;28;20095;-71
2021/04/20 00:46:11;;;;;;;9.48;4.95;;;9.30;99.90;;;;;;4965036;28;20054;-71
2021/04/20 00:48:37;;;;;;;4.80;4.38;;;9.40;99.90;;;;;;4969851;28;20026;-71
2021/04/20 00:51:04;;;;;;;7.40;5.40;;;9.40;99.90;;;;;;4973609;28;20107;-71
2021/04/20 00:53:29;;;;;;;9.07;5.40;;;9.70;99.90;;;;;;4964263;28;20039;-71
2021/04/20 00:55:55;;;;;;;6.22;5.18;;;9.70;99.90;;;;;;4979830;28;20031;-71
2021/04/20 00:58:21;;;;;;;5.75;4.78;;;9.70;99.90;;;;;;4967797;28;20026;-71
2021/04/20 01:00:48;;;;;;;6.93;4.82;;;9.70;99.90;;;;;;4980173;28;20026;-71
2021/04/20 01:03:15;;;;;;;9.70;5.15;;;9.90;99.90;;;;;;4973508;28;20563;-72
2021/04/20 01:05:41;;;;;;;5.93;4.93;;;10.00;99.90;;;;;;4971679;28;20447;-72
2021/04/20 01:08:10;;;;;;;9.50;5.20;;;9.90;99.90;;;;;;4964843;28;20023;-71
2021/04/20 01:10:42;;;;;;;5.18;4.68;;;9.80;99.90;;;;;;4976009;28;20111;-71
2021/04/20 01:13:10;;;;;;;6.18;5.13;;;9.80;99.90;;;;;;4973402;28;20101;-71
2021/04/20 01:15:36;;;;;;;7.47;5.28;;;9.90;99.90;;;;;;4974752;28;20027;-71
2021/04/20 01:18:19;;;;;;;9.32;4.78;;;10.00;99.90;;;;;;4971994;28;20111;-72
2021/04/20 01:20:48;;;;;;;6.82;5.25;;;9.90;99.90;;;;;;4969353;28;20077;-72
2021/04/20 01:23:37;;;;;;;6.55;4.43;;;9.80;99.90;;;;;;4972926;28;20049;-72
2021/04/20 01:26:04;;;;;;;5.70;4.80;;;9.70;99.90;;;;;;4967587;28;20027;-72
2021/04/20 01:28:30;;;;;;;6.82;6.18;;;9.80;99.90;;;;;;4968290;28;20050;-71
2021/04/20 01:30:57;;;;;;;6.38;5.57;;;9.70;99.90;;;;;;4972920;28;20037;-72
2021/04/20 01:33:23;;;;;;;9.40;5.78;;;9.80;99.90;;;;;;4967052;28;20027;-71
2021/04/20 01:35:48;;;;;;;7.90;6.13;;;9.70;99.90;;;;;;4965818;28;20046;-72
2021/04/20 01:38:14;;;;;;;6.25;5.65;;;9.40;99.90;;;;;;4970792;28;20026;-71
2021/04/20 01:40:40;;;;;;;12.30;6.32;;;9.60;99.90;;;;;;4976940;28;20062;-71
2021/04/20 01:43:06;;;;;;;6.47;5.45;;;9.60;99.90;;;;;;4972499;28;20050;-72
2021/04/20 01:45:32;;;;;;;7.00;6.00;;;9.50;99.90;;;;;;4988069;28;20489;-72
2021/04/20 01:47:59;;;;;;;11.10;5.70;;;9.50;99.90;;;;;;4973050;28;20061;-72
2021/04/20 01:50:25;;;;;;;7.40;5.60;;;9.20;99.90;;;;;;4972514;28;20039;-71
2021/04/20 01:52:53;;;;;;;6.32;5.80;;;9.10;99.90;;;;;;4966952;28;20427;-71
2021/04/20 01:55:18;;;;;;;6.72;5.70;;;9.00;99.90;;;;;;4979907;28;20058;-72
2021/04/20 01:57:48;;;;;;;7.30;5.18;;;9.00;99.90;;;;;;4968580;28;20070;-71
2021/04/20 02:00:16;;;;;;;7.20;5.20;;;9.10;99.90;;;;;;4976208;28;20407;-71
2021/04/20 02:02:42;;;;;;;5.47;4.97;;;9.30;99.90;;;;;;4965845;28;20089;-71
2021/04/20 02:05:09;;;;;;;5.65;5.05;;;9.40;99.90;;;;;;4974142;28;20043;-72
2021/04/20 02:07:36;;;;;;;5.65;4.93;;;9.70;99.90;;;;;;4960049;28;20710;-72
2021/04/20 02:10:06;;;;;;;7.97;5.30;;;9.70;99.90;;;;;;4972440;28;20030;-71
2021/04/20 02:12:32;;;;;;;9.68;4.85;;;9.80;99.90;;;;;;4970111;28;20035;-71
2021/04/20 02:14:58;;;;;;;7.05;5.40;;;9.80;99.90;;;;;;4967932;28;20642;-71
2021/04/20 02:17:24;;;;;;;5.88;5.38;;;9.80;99.90;;;;;;4961981;28;20019;-71
2021/04/20 02:19:50;;;;;;;5.93;5.25;;;9.80;99.90;;;;;;4973068;28;20577;-71
2021/04/20 02:22:18;;;;;;;6.55;4.68;;;9.90;99.90;;;;;;4956007;28;20109;-71
2021/04/20 02:24:44;;;;;;;5.95;4.85;;;9.60;99.90;;;;;;4975700;28;20518;-71
2021/04/20 02:27:11;;;;;;;10.20;5.28;;;9.60;99.90;;;;;;4967426;28;20085;-71
2021/04/20 02:29:37;;;;;;;5.38;4.78;;;9.70;99.90;;;;;;4966823;28;20483;-72
2021/04/20 02:32:03;;;;;;;9.48;5.57;;;9.50;99.90;;;;;;4959590;28;20573;-71
2021/04/20 02:34:30;;;;;;;7.85;5.38;;;9.60;99.90;;;;;;4965686;28;20034;-71
2021/04/20 02:36:56;;;;;;;7.72;5.03;;;9.50;99.90;;;;;;4958539;28;20031;-71
2021/04/20 02:39:24;;;;;;;6.55;5.50;;;9.50;99.90;;;;;;4972273;28;20069;-71
2021/04/20 02:41:49;;;;;;;5.35;4.85;;;9.50;99.90;;;;;;4976718;28;20101;-71
2021/04/20 02:44:16;;;;;;;5.70;5.20;;;9.70;99.90;;;;;;4974152;28;20410;-71
2021/04/20 02:46:44;;;;;;;5.32;4.90;;;9.60;99.90;;;;;;4977520;28;20038;-71
2021/04/20 02:49:12;;;;;;;8.20;5.35;;;9.60;99.90;;;;;;4974233;28;20046;-71
2021/04/20 02:51:39;;;;;;;6.30;5.70;;;9.60;99.90;;;;;;4969565;28;20114;-71
2021/04/20 02:54:09;;;;;;;6.18;5.57;;;9.50;99.90;;;;;;4962017;28;21023;-71
2021/04/20 02:56:36;;;;;;;8.10;5.38;;;9.40;99.90;;;;;;4968240;28;20098;-71
2021/04/20 02:59:05;;;;;;;7.95;5.50;;;9.20;99.90;;;;;;4971294;28;20403;-71
2021/04/20 03:01:33;;;;;;;7.68;5.43;;;9.20;99.90;;;;;;4964725;28;20094;-72
2021/04/20 03:03:59;;;;;;;8.20;5.13;;;9.20;99.90;;;;;;4969001;28;20015;-71
2021/04/20 03:06:25;;;;;;;6.03;5.50;;;9.20;99.90;;;;;;4959050;28;20023;-71
2021/04/20 03:08:51;;;;;;;6.50;5.60;;;9.00;99.90;;;;;;4967154;28;20027;-71
2021/04/20 03:11:22;;;;;;;7.32;5.38;;;9.00;99.90;;;;;;4964404;28;20411;-71
2021/04/20 03:13:48;;;;;;;8.40;5.20;;;9.10;99.90;;;;;;4968184;28;20509;-71
2021/04/20 03:16:16;;;;;;;7.07;5.47;;;9.00;99.90;;;;;;4982148;28;20023;-72
2021/04/20 03:18:42;;;;;;;6.40;5.15;;;9.00;99.90;;;;;;4970318;28;20054;-72
2021/04/20 03:21:14;;;;;;;8.02;5.38;;;9.00;99.90;;;;;;4967362;28;20101;-72
2021/04/20 03:23:40;;;;;;;5.70;4.95;;;9.10;99.90;;;;;;4971130;28;20037;-72
2021/04/20 03:26:24;;;;;;;5.38;4.90;;;8.90;99.90;;;;;;4968090;28;20029;-72
2021/04/20 03:28:52;;;;;;;6.93;6.07;;;8.80;99.90;;;;;;4972255;28;20027;-72
2021/04/20 03:31:18;;;;;;;9.23;6.90;;;8.60;99.90;;;;;;4979118;28;20027;-72
2021/04/20 03:33:47;;;;;;;8.43;6.47;;;8.70;99.90;;;;;;4967688;28;20111;-72
2021/04/20 03:36:21;;;;;;;17.63;11.65;;;8.70;99.90;;;;;;4972246;28;20030;-72
2021/04/20 03:38:54;;;;;;;13.77;10.77;;;8.60;99.90;;;;;;4971741;28;20069;-72
2021/04/20 03:41:40;;;;;;;11.65;9.05;;;8.70;99.90;;;;;;4971760;28;20042;-72
2021/04/20 03:44:09;;;;;;;8.65;7.50;;;8.60;99.90;;;;;;4973407;28;20101;-72
2021/04/20 03:46:41;;;;;;;8.25;6.03;;;8.60;99.90;;;;;;4968519;28;20546;-72
2021/04/20 03:49:12;;;;;;;8.40;6.38;;;8.60;99.90;;;;;;4970982;28;20475;-72
2021/04/20 03:51:42;;;;;;;8.10;6.63;;;8.60;99.90;;;;;;4979266;28;20035;-72
2021/04/20 03:54:10;;;;;;;7.15;6.45;;;8.50;99.90;;;;;;4970161;28;20118;-72
2021/04/20 03:56:38;;;;;;;7.53;6.07;;;8.50;99.90;;;;;;4965762;28;20039;-72
2021/04/20 03:59:05;;;;;;;5.80;5.20;;;8.40;99.90;;;;;;4969430;28;20062;-72
2021/04/20 04:01:38;;;;;;;6.78;6.03;;;8.50;99.90;;;;;;4960803;28;20050;-72
2021/04/20 04:04:07;;;;;;;10.18;5.25;;;8.50;99.90;;;;;;4973966;28;20030;-72
2021/04/20 04:06:35;;;;;;;5.90;5.40;;;8.80;99.90;;;;;;4970923;28;20023;-72
2021/04/20 04:09:02;;;;;;;8.65;6.03;;;8.50;99.90;;;;;;4971191;28;20023;-72
2021/04/20 04:11:33;;;;;;;5.85;5.35;;;8.50;99.90;;;;;;4970168;28;20626;-72
2021/04/20 04:14:01;;;;;;;7.88;5.43;;;8.30;99.90;;;;;;4969204;28;20046;-72
2021/04/20 04:16:29;;;;;;;6.88;6.28;;;8.50;99.90;;;;;;4967689;28;20026;-72
2021/04/20 04:18:57;;;;;;;5.50;5.00;;;8.60;99.90;;;;;;4961313;28;20045;-72
2021/04/20 04:21:31;;;;;;;6.30;5.70;;;8.50;99.90;;;;;;4955811;28;20027;-73
2021/04/20 04:24:02;;;;;;;7.78;4.97;;;8.30;99.90;;;;;;4966703;28;20029;-73
2021/04/20 04:26:30;;;;;;;6.60;4.80;;;8.40;99.90;;;;;;4964934;28;20035;-72
2021/04/20 04:29:01;;;;;;;10.70;5.63;;;8.20;99.90;;;;;;4960670;28;20090;-73
2021/04/20 04:31:29;;;;;;;7.45;5.50;;;8.40;99.90;;;;;;4965021;28;20020;-72
2021/04/20 04:33:56;;;;;;;6.03;5.18;;;8.50;99.90;;;;;;4963281;28;20023;-72
2021/04/20 04:36:22;;;;;;;9.23;5.30;;;8.60;99.90;;;;;;4961226;28;20030;-73
2021/04/20 04:38:48;;;;;;;6.13;5.45;;;8.40;99.90;;;;;;4956414;28;20034;-73
2021/04/20 04:41:14;;;;;;;10.95;5.03;;;8.50;99.90;;;;;;4966364;28;20607;-72
2021/04/20 04:43:42;;;;;;;6.00;5.00;;;8.50;99.90;;;;;;4955771;28;20031;-73
2021/04/20 04:46:08;;;;;;;7.25;5.15;;;8.60;99.90;;;;;;4959090;28;20046;-73
2021/04/20 04:48:37;;;;;;;10.10;5.00;;;8.50;99.90;;;;;;4960286;28;20038;-73
2021/04/20 04:51:04;;;;;;;4.80;4.47;;;8.50;99.90;;;;;;4967864;28;20019;-74
2021/04/20 04:53:31;;;;;;;7.20;4.75;;;8.60;99.90;;;;;;4967555;28;20026;-74
2021/04/20 04:56:03;;;;;;;6.53;4.63;;;8.40;99.90;;;;;;4965183;28;20050;-73
2021/04/20 04:58:31;;;;;;;5.78;4.60;;;8.40;99.90;;;;;;4966964;28;20561;-74
2021/04/20 05:01:01;;;;;;;8.18;4.88;;;8.40;99.90;;;;;;4963071;28;20031;-73
2021/04/20 05:03:27;;;;;;;4.93;4.53;;;8.40;99.90;;;;;;4957142;28;20037;-73
2021/04/20 05:05:59;;;;;;;5.93;5.00;;;8.40;99.90;;;;;;4961146;28;20027;-73
2021/04/20 05:08:25;;;;;;;6.82;4.68;;;8.30;99.90;;;;;;4965526;28;20070;-73
2021/04/20 05:10:51;;;;;;;6.20;4.80;;;8.40;99.90;;;;;;4964434;28;20512;-73
2021/04/20 05:13:17;;;;;;;6.35;5.07;;;8.40;99.90;;;;;;4964253;28;20518;-73
2021/04/20 05:15:43;;;;;;;5.20;4.80;;;8.30;99.90;;;;;;4960877;28;20121;-73
2021/04/20 05:18:10;;;;;;;6.57;5.60;;;8.30;99.90;;;;;;4964830;28;20106;-73
2021/04/20 05:20:41;;;;;;;10.73;6.03;;;8.30;99.90;;;;;;4965952;28;20071;-73
2021/04/20 05:23:07;;;;;;;5.88;5.30;;;8.20;99.90;;;;;;4964499;28;20074;-73
2021/04/20 05:25:33;;;;;;;6.32;5.82;;;8.30;99.90;;;;;;4958789;28;20035;-73
2021/04/20 05:27:59;;;;;;;10.30;5.55;;;8.40;99.90;;;;;;4965616;28;20027;-73
2021/04/20 05:30:26;;;;;;;16.38;5.38;;;8.40;99.90;;;;;;4969670;28;20165;-74
2021/04/20 05:32:53;;;;;;;7.50;5.65;;;8.20;99.90;;;;;;4966824;28;20034;-73
2021/04/20 05:35:21;;;;;;;10.77;5.72;;;7.80;99.90;;;;;;4968253;28;20025;-74
2021/04/20 05:37:47;;;;;;;7.57;5.20;;;7.90;99.90;;;;;;4957752;28;20093;-72
2021/04/20 05:40:21;;;;;;;10.07;5.18;;;8.70;99.90;;;;;;4964252;28;20070;-72
2021/04/20 05:42:46;;;;;;;8.30;5.50;;;8.50;99.90;;;;;;4961323;28;20023;-71
2021/04/20 05:45:15;;;;;;;10.70;8.65;;;8.20;99.90;;;;;;4963054;28;20111;-71
2021/04/20 05:47:45;;;;;;;13.52;7.80;;;8.20;99.90;;;;;;4959477;28;20082;-71
2021/04/20 05:50:21;;;;;;;7.82;5.65;;;8.30;99.90;;;;;;4973144;28;20090;-71
2021/04/20 05:52:47;;;;;;;8.73;5.30;;;8.30;99.90;;;;;;4954369;28;20114;-70
2021/04/20 05:55:14;;;;;;;8.93;6.40;;;8.10;99.90;;;;;;4969163;28;20110;-71
2021/04/20 05:57:43;;;;;;;10.30;5.70;;;8.40;99.90;;;;;;4975648;28;20019;-71
2021/04/20 06:00:09;;;;;;;8.38;5.35;;;8.20;99.90;;;;;;4968216;28;20487;-71
2021/04/20 06:02:37;;;;;;;8.82;6.05;;;8.50;99.90;;;;;;4962508;28;20582;-71
2021/04/20 06:05:10;;;;;;;9.70;5.90;;;8.40;99.90;;;;;;4970117;28;20041;-70
2021/04/20 06:07:39;;;;;;;8.25;6.03;;;8.30;99.90;;;;;;4968788;28;20023;-70
2021/04/20 06:10:08;;;;;;;11.95;6.22;;;8.40;99.90;;;;;;4960838;28;20027;-70
2021/04/20 06:12:34;;;;;;;8.48;5.70;;;8.60;99.90;;;;;;4964799;28;20031;-70
2021/04/20 06:15:01;;;;;;;7.80;5.93;;;8.90;99.90;;;;;;4966199;28;20032;-70
2021/04/20 06:17:27;;;;;;;7.07;6.38;;;8.90;99.90;;;;;;4961782;28;20523;-69
2021/04/20 06:19:52;;;;;;;8.60;6.75;;;8.90;99.90;;;;;;4964298;28;20035;-68
2021/04/20 06:22:19;;;;;;;9.48;6.07;;;8.80;99.90;;;;;;4961689;28;20043;-69
2021/04/20 06:24:46;;;;;;;9.68;6.35;;;8.90;99.90;;;;;;4963625;28;20039;-71
2021/04/20 06:27:15;;;;;;;15.30;6.93;;;8.80;99.90;;;;;;4958367;28;20111;-69
2021/04/20 06:29:41;;;;;;;12.82;7.03;;;8.90;99.90;;;;;;4966093;28;20031;-70
2021/04/20 06:32:08;;;;;;;8.82;6.57;;;8.90;99.90;;;;;;4961770;28;20086;-71
2021/04/20 06:34:34;;;;;;;11.18;6.57;;;8.90;99.90;;;;;;4971530;28;20028;-69
2021/04/20 06:37:00;;;;;;;8.35;6.40;;;8.90;99.90;;;;;;4959027;28;20027;-68
2021/04/20 06:39:26;;;;;;;17.58;7.05;;;8.90;99.90;;;;;;4960969;28;20035;-68
2021/04/20 06:41:54;;;;;;;13.57;6.25;;;9.10;99.90;;;;;;4958895;28;20098;-69
2021/04/20 06:44:41;;;;;;;9.23;6.53;;;8.80;99.90;;;;;;4970436;28;20027;-69
2021/04/20 06:47:15;;;;;;;16.98;6.95;;;9.10;99.90;;;;;;4967589;28;20027;-72
2021/04/20 06:49:51;;;;;;;12.98;6.35;;;9.20;99.90;;;;;;4968110;28;20027;-71
2021/04/20 06:52:37;;;;;;;7.95;7.13;;;9.10;99.90;;;;;;4971974;28;20411;-72
2021/04/20 06:55:08;;;;;;;8.88;6.38;;;9.10;99.90;;;;;;4968427;28;20074;-72
2021/04/20 06:57:47;;;;;;;9.93;5.80;;;9.20;99.90;;;;;;4963644;28;20027;-71
2021/04/20 07:00:20;;;;;;;11.77;5.68;;;9.40;99.90;;;;;;4971771;28;20484;-72
2021/04/20 07:03:10;;;;;;;7.82;5.75;;;9.50;99.90;;;;;;4964417;28;20085;-72
2021/04/20 07:05:39;;;;;;;10.60;5.97;;;9.70;99.90;;;;;;4972898;28;20046;-68
2021/04/20 07:08:19;;;;;;;9.75;5.00;;;9.60;99.90;;;;;;4955182;28;20105;-69
2021/04/20 07:10:47;;;;;;;10.43;5.90;;;9.60;99.90;;;;;;4975301;28;20107;-68
2021/04/20 07:13:17;;;;;;;8.02;5.65;;;9.60;99.90;;;;;;4959010;28;20376;-68
2021/04/20 07:15:56;;;;;;;17.13;5.60;;;9.80;99.90;;;;;;4965810;28;20492;-69
2021/04/20 07:18:47;;;;;;;10.48;5.80;;;9.80;99.90;;;;;;4968451;28;20033;-72
2021/04/20 07:21:34;;;;;;;8.77;5.65;;;9.90;99.90;;;;;;4967712;28;20126;-59
2021/04/20 07:24:07;;;;;;;6.22;5.40;;;9.80;99.90;;;;;;4966888;28;20456;-68
2021/04/20 07:26:53;;;;;;;13.25;6.07;;;10.20;99.90;;;;;;4958701;28;20098;-69
2021/04/20 07:29:42;;;;;;;6.10;5.35;;;9.90;99.90;;;;;;4956993;28;20023;-70
2021/04/20 07:32:33;;;;;;;7.50;5.55;;;10.00;99.90;;;;;;4948830;28;20409;-70
2021/04/20 07:35:17;;;;;;;6.45;5.47;;;10.10;99.90;;;;;;4965036;28;20460;-69
2021/04/20 07:37:52;;;;;;;15.75;5.68;;;10.40;99.90;;;;;;4979512;28;20071;-70
2021/04/20 07:40:41;;;;;;;12.18;5.72;;;10.20;99.90;;;;;;4960196;28;20121;-69
2021/04/20 07:43:32;;;;;;;9.27;5.38;;;10.40;99.90;;;;;;4955617;28;20022;-68
2021/04/20 07:46:22;;;;;;;7.18;5.47;;;10.30;99.90;;;;;;4961880;28;20507;-69
2021/04/20 07:48:55;;;;;;;7.43;5.68;;;10.30;99.90;;;;;;4957961;28;20026;-70
2021/04/20 07:51:42;;;;;;;7.13;5.38;;;10.50;99.90;;;;;;4956132;28;20027;-69
2021/04/20 07:54:35;;;;;;;6.47;5.88;;;10.80;99.90;;;;;;4965727;28;20097;-69
2021/04/20 07:57:09;;;;;;;6.07;4.97;;;11.10;99.90;;;;;;4963543;28;20468;-70
2021/04/20 07:59:57;;;;;;;5.93;5.45;;;11.10;99.90;;;;;;4972227;28;20049;-71
2021/04/20 08:02:30;;;;;;;12.48;5.80;;;11.30;99.90;;;;;;4962989;28;20054;-70
2021/04/20 08:05:12;;;;;;;6.05;5.47;;;11.20;99.90;;;;;;4972787;28;20555;-71
2021/04/20 08:08:01;;;;;;;8.68;6.00;;;11.50;99.90;;;;;;4958422;28;20027;-72
2021/04/20 08:10:52;;;;;;;8.50;6.13;;;11.50;99.90;;;;;;4962344;28;20640;-71
2021/04/20 08:13:40;;;;;;;10.00;5.85;;;11.50;99.90;;;;;;4957806;28;20039;-72
2021/04/20 08:16:23;;;;;;;8.45;5.70;;;11.60;99.90;;;;;;4959442;28;20090;-70
2021/04/20 08:18:51;;;;;;;9.15;6.00;;;11.80;99.90;;;;;;4962276;28;20443;-70
2021/04/20 08:21:17;;;;;;;8.32;5.50;;;11.90;99.90;;;;;;4961154;28;20027;-70
2021/04/20 08:23:49;;;;;;;8.32;5.72;;;12.00;99.90;;;;;;4967598;28;20030;-72
2021/04/20 08:26:22;;;;;;;7.10;6.50;;;12.00;99.90;;;;;;4970885;28;20023;-71
2021/04/20 08:29:11;;;;;;;7.35;5.72;;;12.20;99.90;;;;;;4960816;28;20038;-71
2021/04/20 08:31:47;;;;;;;8.88;5.90;;;12.20;99.90;;;;;;4966435;28;20030;-71
2021/04/20 08:34:17;;;;;;;11.15;6.22;;;12.10;99.90;;;;;;4963873;28;20037;-70
2021/04/20 08:37:01;;;;;;;13.05;6.93;;;12.40;99.90;;;;;;4968958;28;20015;-72
2021/04/20 08:39:40;;;;;;;14.20;5.68;;;12.50;99.90;;;;;;4963501;28;20081;-72
2021/04/20 08:42:34;;;;;;;7.78;6.00;;;12.70;99.90;;;;;;4964842;28;20019;-71
2021/04/20 08:45:20;;;;;;;8.73;5.10;;;12.70;99.90;;;;;;4965623;28;20030;-70
2021/04/20 08:48:12;;;;;;;10.85;5.20;;;12.90;99.90;;;;;;4959338;28;20023;-69
2021/04/20 08:50:44;;;;;;;9.55;5.80;;;13.60;99.90;;;;;;4966683;28;20038;-69
2021/04/20 08:53:31;;;;;;;7.78;5.57;;;13.70;99.90;;;;;;4964564;28;20035;-70
2021/04/20 08:56:15;;;;;;;7.53;5.50;;;13.90;99.90;;;;;;4972515;28;20025;-69
2021/04/20 08:59:14;;;;;;;8.90;5.43;;;14.00;99.90;;;;;;4967396;28;20092;-70
2021/04/20 09:02:11;;;;;;;11.25;4.63;;;14.20;99.90;;;;;;4966355;28;20027;-71
2021/04/20 09:05:02;;;;;;;8.20;4.60;;;14.30;99.90;;;;;;4962397;28;20027;-70
2021/04/20 09:07:46;;;;;;;4.55;4.22;;;14.20;99.90;;;;;;4961186;28;20026;-68
2021/04/20 09:10:23;;;;;;;9.80;4.57;;;14.20;99.90;;;;;;4967972;28;20068;-68
2021/04/20 09:12:56;;;;;;;4.18;3.85;;;14.30;99.90;;;;;;4956099;28;20034;-69
2021/04/20 09:15:24;;;;;;;5.35;4.05;;;14.50;99.90;;;;;;4969378;28;20030;-70
2021/04/20 09:17:55;;;;;;;14.73;4.63;;;15.20;99.90;;;;;;4956121;28;20488;-67
2021/04/20 09:21:04;;;;;;;6.22;4.38;;;15.20;99.90;;;;;;4968316;28;20065;-69
2021/04/20 09:23:47;;;;;;;4.20;3.80;;;15.00;99.80;;;;;;4956433;28;20051;-68
2021/04/20 09:26:37;;;;;;;4.28;3.80;;;15.10;99.90;;;;;;4960639;28;20515;-68
2021/04/20 09:29:19;;;;;;;6.13;3.80;;;15.60;99.90;;;;;;4972707;28;20028;-68
2021/04/20 09:32:01;;;;;;;6.50;3.47;;;16.30;99.90;;;;;;4968023;28;20026;-68
2021/04/20 09:34:30;;;;;;;4.60;3.42;;;16.20;98.90;;;;;;4974886;28;20057;-69
2021/04/20 09:36:57;;;;;;;7.75;3.15;;;16.00;98.30;;;;;;4973351;28;20399;-68
2021/04/20 09:39:24;;;;;;;4.43;3.10;;;15.80;98.70;;;;;;4970927;28;20042;-68
2021/04/20 09:41:51;;;;;;;6.85;3.22;;;15.90;98.20;;;;;;4967234;28;20031;-68
2021/04/20 09:44:44;;;;;;;3.30;3.00;;;16.00;98.40;;;;;;4967502;28;20026;-68
2021/04/20 09:47:19;;;;;;;12.70;3.60;;;16.40;97.70;;;;;;4961836;28;20019;-67
2021/04/20 09:49:59;;;;;;;13.10;3.35;;;16.80;98.70;;;;;;4974601;28;20032;-69
2021/04/20 09:52:33;;;;;;;6.93;3.90;;;16.70;98.30;;;;;;4973731;28;20023;-68
2021/04/20 09:55:07;;;;;;;5.28;3.15;;;16.70;97.50;;;;;;4971749;28;20114;-68
2021/04/20 09:57:37;;;;;;;3.28;2.97;;;17.10;97.30;;;;;;4967385;28;20035;-68
2021/04/20 10:00:09;;;;;;;7.43;3.08;;;17.30;97.10;;;;;;4970959;28;20023;-68
2021/04/20 10:02:53;;;;;;;3.83;2.90;;;16.90;96.50;;;;;;4955335;28;20031;-69
2021/04/20 10:05:46;;;;;;;6.32;3.42;;;17.00;96.60;;;;;;4969091;28;20035;-68
2021/04/20 10:08:50;;;;;;;14.43;3.15;;;17.20;95.90;;;;;;4962450;28;20407;-68
2021/04/20 10:11:33;;;;;;;6.22;2.88;;;17.60;96.80;;;;;;4983056;28;20161;-68
2021/04/20 10:14:26;;;;;;;5.82;2.55;;;17.60;96.20;;;;;;4968842;28;20068;-69
2021/04/20 10:17:15;;;;;;;15.85;3.10;;;18.20;96.60;;;;;;4974048;28;20567;-69
2021/04/20 10:19:58;;;;;;;2.92;2.58;;;18.20;96.80;;;;;;4974027;28;20096;-68
2021/04/20 10:22:42;;;;;;;6.45;2.72;;;18.60;96.20;;;;;;4971822;28;20134;-68
2021/04/20 10:25:39;;;;;;;3.08;2.70;;;18.70;95.10;;;;;;4973047;28;20030;-69
2021/04/20 10:28:21;;;;;;;3.67;3.33;;;18.90;95.70;;;;;;4956318;28;20027;-68
2021/04/20 10:30:50;;;;;;;5.35;2.70;;;18.10;94.30;;;;;;4979807;28;20631;-68
2021/04/20 10:33:22;;;;;;;7.95;2.63;;;18.60;95.00;;;;;;4968152;28;20023;-68
2021/04/20 10:35:49;;;;;;;7.13;2.50;;;18.80;94.70;;;;;;4978653;28;20039;-69
2021/04/20 10:38:17;;;;;;;7.82;3.13;;;18.70;94.00;;;;;;4971882;28;20025;-68
2021/04/20 10:40:44;;;;;;;3.92;2.92;;;19.10;93.80;;;;;;4972189;28;20043;-69
2021/04/20 10:43:13;;;;;;;6.90;2.75;;;19.20;93.70;;;;;;4970905;28;20019;-69
2021/04/20 10:45:42;;;;;;;3.10;2.80;;;19.20;93.10;;;;;;4967153;28;20641;-74
2021/04/20 10:48:11;;;;;;;3.53;2.53;;;18.80;92.80;;;;;;4957458;28;20395;-69
2021/04/20 10:50:39;;;;;;;5.90;2.25;;;19.00;93.10;;;;;;4965123;28;20037;-68
2021/04/20 10:53:18;;;;;;;3.15;2.88;;;19.00;92.50;;;;;;4960965;28;20471;-68
2021/04/20 10:55:55;;;;;;;7.15;2.50;;;19.20;91.10;;;;;;4969998;28;20034;-68
2021/04/20 10:58:25;;;;;;;3.05;2.72;;;19.40;92.40;;;;;;4962371;28;20101;-68
2021/04/20 11:00:54;;;;;;;3.70;2.78;;;19.70;91.20;;;;;;4966048;28;20038;-67
2021/04/20 11:03:40;;;;;;;5.45;2.67;;;19.20;91.40;;;;;;4961871;28;20488;-69
2021/04/20 11:06:07;;;;;;;4.70;2.25;;;19.80;91.70;;;;;;4964516;28;20154;-68
2021/04/20 11:08:59;;;;;;;5.45;2.45;;;20.10;90.90;;;;;;4962051;28;20505;-68
2021/04/20 11:11:25;;;;;;;2.50;2.30;;;19.60;90.60;;;;;;4958949;28;20569;-68
2021/04/20 11:13:50;;;;;;;3.45;2.90;;;20.00;90.50;;;;;;4961050;28;20023;-67
2021/04/20 11:16:23;;;;;;;2.63;2.42;;;19.60;90.10;;;;;;4967857;28;20714;-68
2021/04/20 11:18:56;;;;;;;2.47;2.28;;;20.30;90.20;;;;;;4958530;28;20034;-68
2021/04/20 11:21:26;;;;;;;2.58;2.38;;;20.20;87.40;;;;;;4965054;28;20051;-68
2021/04/20 11:24:03;;;;;;;3.50;2.38;;;19.80;86.50;;;;;;4957598;28;20030;-68
2021/04/20 11:26:33;;;;;;;2.67;2.42;;;20.20;87.80;;;;;;4967754;28;20037;-68
2021/04/20 11:29:09;;;;;;;5.85;2.50;;;20.60;87.50;;;;;;4966474;28;20038;-68
2021/04/20 11:31:45;;;;;;;5.22;2.33;;;20.30;87.60;;;;;;4966214;28;20082;-69
2021/04/20 11:34:31;;;;;;;2.45;2.00;;;20.30;87.20;;;;;;4969938;28;20033;-68
2021/04/20 11:37:07;;;;;;;4.22;2.15;;;20.30;84.60;;;;;;4962614;28;20019;-68
2021/04/20 11:39:37;;;;;;;2.35;2.13;;;21.00;85.60;;;;;;4972174;28;20110;-68
2021/04/20 11:42:13;;;;;;;6.55;2.00;;;21.30;83.20;;;;;;4968329;28;20027;-68
2021/04/20 11:44:43;;;;;;;4.05;2.90;;;21.40;83.50;;;;;;4972110;28;20041;-68
2021/04/20 11:47:11;;;;;;;2.78;2.35;;;21.10;83.60;;;;;;4964003;28;20388;-68
2021/04/20 11:49:44;;;;;;;4.93;2.50;;;21.10;83.30;;;;;;4963870;28;20027;-68
2021/04/20 11:52:16;;;;;;;4.35;2.20;;;21.90;85.80;;;;;;4960844;28;20026;-68
2021/04/20 11:54:44;;;;;;;6.15;2.65;;;22.00;84.60;;;;;;4964776;28;20019;-68
2021/04/20 11:57:12;;;;;;;2.30;2.10;;;22.50;81.10;;;;;;4961179;28;20615;-67
2021/04/20 11:59:39;;;;;;;2.22;2.03;;;22.50;81.80;;;;;;4961874;28;20042;-68
2021/04/20 12:02:06;;;;;;;3.55;2.42;;;22.10;81.70;;;;;;4957922;28;20027;-68
2021/04/20 12:04:40;;;;;;;5.70;2.38;;;22.10;80.80;;;;;;4962165;28;20019;-68
2021/04/20 12:07:07;;;;;;;2.60;2.40;;;22.10;82.10;;;;;;4953538;28;20023;-68
2021/04/20 12:09:41;;;;;;;4.00;2.00;;;21.90;80.70;;;;;;4963382;28;20031;-68
2021/04/20 12:12:08;;;;;;;7.15;2.45;;;21.80;78.90;;;;;;4957667;28;20019;-69
2021/04/20 12:14:39;;;;;;;3.97;2.60;;;22.20;82.10;;;;;;4967620;28;20585;-69
2021/04/20 12:17:05;;;;;;;5.72;2.00;;;21.40;77.60;;;;;;4955882;28;20027;-68
2021/04/20 12:19:33;;;;;;;3.35;1.98;;;22.40;76.10;;;;;;4967471;28;20566;-68
2021/04/20 12:22:01;;;;;;;3.78;2.30;;;22.90;80.20;;;;;;4957649;28;20115;-71
2021/04/20 12:24:29;;;;;;;5.10;2.95;;;22.50;77.00;;;;;;4960777;28;20041;-73
2021/04/20 12:26:58;;;;;;;3.22;1.90;;;22.00;78.20;;;;;;4953492;28;20106;-69
2021/04/20 12:29:41;;;;;;;6.38;1.90;;;23.30;77.60;;;;;;4959786;28;20070;-71
2021/04/20 12:32:15;;;;;;;2.60;2.10;;;23.60;76.60;;;;;;4953849;28;20038;-67
2021/04/20 12:34:41;;;;;;;4.47;2.63;;;23.40;75.40;;;;;;4963720;28;20035;-67
2021/04/20 12:37:09;;;;;;;3.10;2.15;;;22.60;75.10;;;;;;4956889;28;20534;-70
2021/04/20 12:39:42;;;;;;;2.97;2.20;;;23.10;73.40;;;;;;4958047;28;20496;-69
2021/04/20 12:42:13;;;;;;;2.28;2.05;;;22.30;75.30;;;;;;4956146;28;20038;-68
2021/04/20 12:44:49;;;;;;;3.83;2.20;;;23.10;74.20;;;;;;4959793;28;20031;-67
2021/04/20 12:47:17;;;;;;;5.50;1.98;;;23.60;75.90;;;;;;4958002;28;20144;-67
2021/04/20 12:49:48;;;;;;;4.63;2.20;;;23.60;74.60;;;;;;4965348;28;20114;-68
2021/04/20 12:52:18;;;;;;;8.30;2.33;;;23.90;72.50;;;;;;4966721;28;20026;-68
2021/04/20 12:54:46;;;;;;;2.95;1.90;;;23.80;73.30;;;;;;4962567;28;20038;-68
2021/04/20 12:57:19;;;;;;;2.28;1.85;;;24.00;71.20;;;;;;4962545;28;20060;-68
2021/04/20 12:59:48;;;;;;;4.00;2.00;;;24.00;73.50;;;;;;4967022;28;20050;-67
2021/04/20 13:02:20;;;;;;;3.03;2.03;;;23.80;70.80;;;;;;4966200;28;20090;-68
2021/04/20 13:04:47;;;;;;;4.95;1.80;;;23.50;71.30;;;;;;4965975;28;20031;-67
2021/04/20 13:07:14;;;;;;;1.98;1.60;;;23.40;70.80;;;;;;4960011;28;20023;-67
2021/04/20 13:09:42;;;;;;;4.15;2.00;;;23.00;74.60;;;;;;4965951;28;20187;-67
2021/04/20 13:12:15;;;;;;;2.67;2.00;;;22.90;72.20;;;;;;4961136;28;20027;-66
2021/04/20 13:14:46;;;;;;;5.15;2.20;;;22.90;71.00;;;;;;4969270;28;20046;-67
2021/04/20 13:17:21;;;;;;;4.70;2.20;;;22.30;73.30;;;;;;4962305;28;20019;-67